Time;durP1;ratioP1;P1;durP2;ratioP2;P2;SDS_P1;SDS_P2;PMS_P1;PMS_P2;Temp;Humidity;BMP_temperature;BMP_pressure;BME280_temperature;BME280_humidity;BME280_pressure;Samples;Min_cycle;Max_cycle;Signal;HPM_P1;HPM_P2
2022/10/21 00:00:51;;;;;;;;;2.00;2.00;;;;;17.37;72.87;100054.59;4977787;28;45633;-55
2022/10/21 00:03:17;;;;;;;;;1.80;1.80;;;;;17.38;72.59;100064.56;4977257;28;46520;-56
2022/10/21 00:05:42;;;;;;;;;3.25;3.25;;;;;17.36;73.17;100058.47;4977452;28;45437;-55
2022/10/21 00:08:08;;;;;;;;;2.25;2.00;;;;;17.07;73.09;100011.81;4977765;28;45485;-54
2022/10/21 00:10:33;;;;;;;;;4.50;3.25;;;;;17.35;72.92;100056.81;4977602;28;45509;-56
2022/10/21 00:12:58;;;;;;;;;3.50;3.50;;;;;17.30;73.15;100048.47;4975886;28;46775;-55
2022/10/21 00:15:24;;;;;;;;;2.00;2.00;;;;;17.34;73.12;100042.09;4977370;28;45461;-55
2022/10/21 00:17:50;;;;;;;;;4.50;2.25;;;;;17.30;73.53;100038.19;4963882;28;45389;-55
2022/10/21 00:20:15;;;;;;;;;3.25;2.00;;;;;17.30;73.46;100034.59;4958023;28;45577;-56
2022/10/21 00:22:41;;;;;;;;;2.00;2.00;;;;;17.17;73.30;100006.31;4956457;28;46262;-54
2022/10/21 00:25:07;;;;;;;;;2.00;2.00;;;;;17.11;73.11;99988.00;4956323;28;45389;-56
2022/10/21 00:27:32;;;;;;;;;1.60;1.60;;;;;16.73;73.12;99934.66;4940028;28;45336;-55
2022/10/21 00:29:58;;;;;;;;;3.75;3.00;;;;;17.15;73.44;100000.22;4956351;28;45461;-55
2022/10/21 00:32:23;;;;;;;;;3.25;1.50;;;;;17.31;73.55;100022.41;4958091;28;45413;-56
2022/10/21 00:34:49;;;;;;;;;3.00;2.00;;;;;17.34;73.28;100019.06;4957451;28;45280;-56
2022/10/21 00:37:14;;;;;;;;;2.75;2.00;;;;;17.39;73.38;100024.63;4957527;28;45520;-53
2022/10/21 00:39:40;;;;;;;;;2.75;2.00;;;;;17.40;73.05;100022.69;4958190;28;45212;-55
2022/10/21 00:42:06;;;;;;;;;4.00;3.00;;;;;17.22;73.23;99997.16;4957699;28;46969;-56
2022/10/21 00:44:34;;;;;;;;;1.00;1.00;;;;;17.32;73.28;100024.06;4956020;28;45326;-54
2022/10/21 00:47:17;;;;;;;;;3.20;3.00;;;;;17.05;73.34;99966.91;4927212;28;46036;-54
2022/10/21 00:49:48;;;;;;;;;4.00;2.00;;;;;17.12;73.38;99975.78;4957832;28;45334;-55
2022/10/21 00:52:16;;;;;;;;;3.60;2.80;;;;;17.30;73.56;100002.16;4956093;28;45699;-55
2022/10/21 00:54:42;;;;;;;;;3.80;2.80;;;;;17.37;73.04;100006.59;4955686;28;45562;-55
2022/10/21 00:57:07;;;;;;;;;3.00;3.00;;;;;17.34;73.15;100003.28;4956287;28;45471;-56
2022/10/21 00:59:40;;;;;;;;;3.00;3.00;;;;;17.33;73.23;99995.22;4956298;28;45501;-56
2022/10/21 01:02:05;;;;;;;;;2.80;1.60;;;;;17.36;73.16;99986.38;4957486;28;46507;-55
2022/10/21 01:04:31;;;;;;;;;3.50;2.25;;;;;17.31;73.21;99989.97;4956193;28;45236;-55
2022/10/21 01:06:56;;;;;;;;;4.25;2.75;;;;;17.35;73.37;99973.63;4940116;28;45592;-56
2022/10/21 01:09:21;;;;;;;;;2.00;2.00;;;;;17.34;73.00;99960.81;4957717;28;45329;-56
2022/10/21 01:11:48;;;;;;;;;2.25;2.25;;;;;17.32;73.18;99957.50;4956078;28;45290;-56
2022/10/21 01:14:45;;;;;;;;;2.20;2.00;;;;;17.39;73.23;99949.75;4956070;28;45465;-55
2022/10/21 01:17:28;;;;;;;;;2.00;2.00;;;;;17.43;73.06;99952.78;4960410;28;45350;-55
2022/10/21 01:20:15;;;;;;;;;3.00;2.00;;;;;17.44;72.98;99952.53;4977127;28;45263;-56
2022/10/21 01:22:46;;;;;;;;;2.60;2.60;;;;;17.46;73.05;99950.28;4976741;28;45393;-55
2022/10/21 01:25:35;;;;;;;;;3.20;3.20;;;;;17.38;72.92;99916.72;4976385;28;45445;-55
2022/10/21 01:28:12;;;;;;;;;3.60;3.00;;;;;17.52;72.93;99941.97;4975944;28;45373;-55
2022/10/21 01:30:38;;;;;;;;;4.60;4.60;;;;;17.52;73.05;99953.06;4975730;28;45320;-55
2022/10/21 01:33:11;;;;;;;;;3.00;1.80;;;;;17.43;73.37;99950.88;4958886;28;46271;-55
2022/10/21 01:35:51;;;;;;;;;2.00;2.00;;;;;17.43;73.15;99961.13;4958814;28;45392;-56
2022/10/21 01:38:31;;;;;;;;;2.00;2.00;;;;;17.39;73.27;99952.50;4960349;28;45465;-58
2022/10/21 01:41:07;;;;;;;;;4.00;2.60;;;;;17.44;73.17;99963.63;4976079;28;45304;-55
2022/10/21 01:44:05;;;;;;;;;2.60;2.00;;;;;17.42;73.51;99959.44;4960250;28;46613;-54
2022/10/21 01:46:36;;;;;;;;;5.20;3.00;;;;;17.41;73.31;99950.31;4964325;28;45273;-55
2022/10/21 01:49:27;;;;;;;;;1.60;1.60;;;;;17.48;73.45;99967.50;4975329;28;45318;-54
2022/10/21 01:51:53;;;;;;;;;3.00;3.00;;;;;17.42;73.38;99971.41;4973751;28;45471;-51
2022/10/21 01:54:21;;;;;;;;;3.25;1.25;;;;;17.46;73.41;99994.69;4991086;28;45517;-55
2022/10/21 01:56:47;;;;;;;;;6.40;3.40;;;;;17.47;73.47;100010.19;4958680;28;45242;-54
2022/10/21 01:59:12;;;;;;;;;4.00;4.00;;;;;17.52;73.49;100017.72;4975247;28;45236;-55
2022/10/21 02:01:38;;;;;;;;;3.75;3.25;;;;;17.39;74.10;100013.53;4946567;28;45883;-55
2022/10/21 02:04:04;;;;;;;;;4.25;3.00;;;;;17.43;74.94;100053.50;4976027;28;46171;-55
2022/10/21 02:06:29;;;;;;;;;4.00;2.50;;;;;17.23;75.84;100032.09;4974743;28;45285;-58
2022/10/21 02:08:55;;;;;;;;;3.75;2.50;;;;;17.29;77.46;100052.34;4975063;28;45584;-55
2022/10/21 02:11:20;;;;;;;;;2.00;2.00;;;;;17.28;77.12;100068.16;4976419;28;45285;-55
2022/10/21 02:13:49;;;;;;;;;5.00;4.00;;;;;17.25;77.60;100074.25;4974050;28;46361;-55
2022/10/21 02:16:15;;;;;;;;;4.20;3.00;;;;;17.26;77.76;100072.31;4976110;28;45855;-56
2022/10/21 02:18:41;;;;;;;;;2.60;1.80;;;;;17.30;77.70;100067.88;4974474;28;45394;-56
2022/10/21 02:21:09;;;;;;;;;5.50;2.25;;;;;17.27;77.85;100040.69;4974848;28;45539;-56
2022/10/21 02:23:58;;;;;;;;;3.00;2.00;;;;;17.28;78.43;100021.00;4991133;28;48583;-56
2022/10/21 02:26:25;;;;;;;;;3.00;2.00;;;;;17.30;78.14;100004.09;4960428;28;45466;-57
2022/10/21 02:28:50;;;;;;;;;3.40;3.40;;;;;17.41;78.63;100010.50;4977665;28;45401;-57
2022/10/21 02:31:18;;;;;;;;;2.75;2.75;;;;;17.36;78.67;99977.19;4979560;28;45283;-56
2022/10/21 02:34:42;;;;;;;;;4.60;4.60;;;;;17.46;78.69;99974.44;4977316;28;46546;-56
2022/10/21 02:37:13;;;;;;;;;3.00;3.00;;;;;17.50;78.86;99938.66;4954068;28;45576;-55
2022/10/21 02:39:43;;;;;;;;;3.20;3.20;;;;;17.24;78.17;99864.59;4978452;28;45502;-58
2022/10/21 02:42:09;;;;;;;;;5.00;2.40;;;;;17.44;78.84;99885.94;4961904;28;45342;-56
2022/10/21 02:44:35;;;;;;;;;3.00;1.80;;;;;17.55;78.78;99903.41;4977191;28;45262;-54
2022/10/21 02:47:01;;;;;;;;;2.75;2.75;;;;;17.60;78.82;99895.09;4961463;28;45406;-56
2022/10/21 02:49:27;;;;;;;;;2.20;2.00;;;;;17.41;78.85;99857.94;4977458;28;45469;-59
2022/10/21 02:51:52;;;;;;;;;2.75;2.75;;;;;17.55;79.12;99888.72;4977939;28;45360;-59
2022/10/21 02:54:18;;;;;;;;;4.00;3.75;;;;;17.65;78.72;99896.19;4961238;28;46037;-59
2022/10/21 02:56:43;;;;;;;;;5.00;4.00;;;;;17.41;78.63;99864.34;4978048;28;45354;-58
2022/10/21 02:59:09;;;;;;;;;2.75;2.75;;;;;17.64;78.87;99905.63;4978446;28;45547;-59
2022/10/21 03:01:34;;;;;;;;;3.50;2.50;;;;;17.64;78.52;99903.69;4978676;28;45667;-58
2022/10/21 03:04:00;;;;;;;;;3.00;2.00;;;;;17.64;78.38;99906.47;4968071;28;45468;-58
2022/10/21 03:06:25;;;;;;;;;2.00;2.00;;;;;17.60;78.42;99905.34;4976209;28;45387;-57
2022/10/21 03:08:51;;;;;;;;;5.00;3.25;;;;;17.56;78.50;99902.28;4971873;28;45387;-59
2022/10/21 03:11:16;;;;;;;;;5.00;3.75;;;;;17.59;78.58;99918.41;4977367;28;45665;-58
2022/10/21 03:13:42;;;;;;;;;3.00;3.00;;;;;17.63;78.61;99935.31;4978288;28;45432;-59
2022/10/21 03:16:08;;;;;;;;;2.00;2.00;;;;;17.44;78.85;99924.78;4978302;28;45396;-57
2022/10/21 03:18:33;;;;;;;;;3.75;3.00;;;;;17.27;79.18;99913.97;4970920;28;45352;-58
2022/10/21 03:20:58;;;;;;;;;2.75;2.75;;;;;17.57;79.05;99965.00;4957706;28;45521;-58
2022/10/21 03:23:24;;;;;;;;;2.75;2.75;;;;;17.42;79.12;99945.59;4957204;28;45289;-59
2022/10/21 03:25:49;;;;;;;;;2.00;2.00;;;;;17.55;79.24;99974.72;4958425;28;45498;-58
2022/10/21 03:28:15;;;;;;;;;4.00;2.75;;;;;17.62;79.15;99989.16;4958944;28;45289;-58
2022/10/21 03:30:40;;;;;;;;;5.00;4.00;;;;;17.56;79.46;99977.19;4958880;28;45656;-59
2022/10/21 03:33:06;;;;;;;;;2.75;2.75;;;;;17.29;79.50;99920.06;4958542;28;45868;-58
2022/10/21 03:35:31;;;;;;;;;1.00;1.00;;;;;17.59;78.93;99962.78;4958782;28;45503;-59
2022/10/21 03:37:57;;;;;;;;;2.25;1.75;;;;;17.49;78.94;99943.34;4958895;28;45557;-58
2022/10/21 03:40:28;;;;;;;;;3.00;3.00;;;;;17.46;79.64;99927.28;4958218;28;45511;-58
2022/10/21 03:42:54;;;;;;;;;5.20;2.80;;;;;17.21;78.60;99915.09;4957165;28;46879;-58
2022/10/21 03:45:19;;;;;;;;;2.00;1.00;;;;;17.40;78.86;99951.41;4958627;28;45340;-58
2022/10/21 03:47:46;;;;;;;;;1.25;1.25;;;;;17.39;78.32;99957.25;4958708;28;45229;-59
2022/10/21 03:50:11;;;;;;;;;2.20;1.80;;;;;17.34;79.04;99955.28;4958526;28;45657;-59
2022/10/21 03:52:36;;;;;;;;;3.25;2.75;;;;;17.33;78.83;99968.34;4958540;28;46918;-59
2022/10/21 03:55:02;;;;;;;;;4.00;1.25;;;;;17.34;79.32;99970.00;4958159;28;45371;-59
2022/10/21 03:57:28;;;;;;;;;2.50;2.50;;;;;16.93;79.22;99903.38;4957038;28;45487;-59
2022/10/21 03:59:53;;;;;;;;;1.75;1.75;;;;;17.26;78.99;99939.19;4958971;28;45490;-59
2022/10/21 04:02:19;;;;;;;;;2.25;1.50;;;;;17.28;79.06;99961.97;4958075;28;45485;-59
2022/10/21 04:04:44;;;;;;;;;3.25;1.00;;;;;17.27;79.07;99969.44;4958197;28;45458;-59
2022/10/21 04:07:10;;;;;;;;;3.00;1.25;;;;;17.27;79.51;99979.69;4958690;28;45434;-58
2022/10/21 04:09:35;;;;;;;;;3.50;3.50;;;;;16.98;79.33;99922.81;4958550;28;45422;-59
2022/10/21 04:12:01;;;;;;;;;3.50;3.00;;;;;17.26;79.24;99966.94;4957017;28;46097;-58
2022/10/21 04:14:26;;;;;;;;;2.00;2.00;;;;;17.26;79.51;99967.78;4957718;28;45384;-59
2022/10/21 04:16:52;;;;;;;;;2.75;1.75;;;;;17.31;79.26;99986.34;4958455;28;45309;-59
2022/10/21 04:19:18;;;;;;;;;3.00;2.00;;;;;17.28;79.29;99968.31;4971691;28;45407;-59
2022/10/21 04:21:44;;;;;;;;;4.00;3.60;;;;;17.26;79.35;99966.94;4977106;28;45323;-59
2022/10/21 04:24:09;;;;;;;;;4.50;3.75;;;;;17.25;79.39;99962.50;4977403;28;45255;-59
2022/10/21 04:26:35;;;;;;;;;6.00;3.25;;;;;17.17;79.53;99953.63;4977366;28;45397;-59
2022/10/21 04:29:00;;;;;;;;;4.50;3.00;;;;;17.28;79.69;99961.97;4976472;28;45298;-59
2022/10/21 04:31:26;;;;;;;;;3.50;3.25;;;;;17.28;79.83;99961.97;4976632;28;45427;-59
2022/10/21 04:33:51;;;;;;;;;4.50;3.50;;;;;17.27;79.95;99969.44;4976033;28;45914;-59
2022/10/21 04:36:17;;;;;;;;;4.00;3.00;;;;;17.26;80.17;99959.47;4977120;28;45339;-59
2022/10/21 04:38:42;;;;;;;;;3.75;3.00;;;;;17.35;79.97;99968.06;4977275;28;45446;-59
2022/10/21 04:41:08;;;;;;;;;5.00;3.00;;;;;17.32;80.08;99965.81;4977166;28;45354;-59
2022/10/21 04:43:33;;;;;;;;;4.50;4.50;;;;;17.37;79.86;99976.94;4949121;28;45848;-59
2022/10/21 04:45:59;;;;;;;;;5.75;5.50;;;;;17.43;80.02;99975.81;4974013;28;45378;-59
2022/10/21 04:48:24;;;;;;;;;6.00;5.00;;;;;17.46;80.08;99972.47;4973699;28;45665;-59
2022/10/21 04:50:50;;;;;;;;;8.75;5.00;;;;;17.46;79.95;99971.66;4975677;28;46084;-59
2022/10/21 04:53:16;;;;;;;;;6.00;6.00;;;;;17.34;79.99;99958.91;4976787;28;45385;-59
2022/10/21 04:55:41;;;;;;;;;7.50;5.50;;;;;17.39;80.28;99968.34;4975238;28;45469;-59
2022/10/21 04:58:07;;;;;;;;;7.25;6.75;;;;;17.38;80.23;99964.72;4959833;28;45480;-59
2022/10/21 05:00:32;;;;;;;;;7.50;5.75;;;;;17.37;80.31;99974.16;4975447;28;45844;-59
2022/10/21 05:02:58;;;;;;;;;4.25;4.25;;;;;17.36;80.36;99972.50;4976658;28;45379;-60
2022/10/21 05:05:24;;;;;;;;;8.00;4.25;;;;;17.37;80.18;99974.16;4976744;28;45325;-59
2022/10/21 05:07:49;;;;;;;;;5.25;5.25;;;;;17.36;80.43;99969.72;4943449;28;45314;-60
2022/10/21 05:10:14;;;;;;;;;6.00;6.00;;;;;17.32;80.14;99957.50;4976688;28;45343;-59
2022/10/21 05:12:40;;;;;;;;;7.25;6.00;;;;;17.30;80.33;99965.28;4976760;28;45343;-60
2022/10/21 05:15:06;;;;;;;;;7.50;6.50;;;;;17.29;81.01;99967.22;4976338;28;45569;-60
2022/10/21 05:17:31;;;;;;;;;6.60;4.40;;;;;17.13;80.69;99941.41;4976295;28;45303;-59
2022/10/21 05:19:57;;;;;;;;;8.75;6.00;;;;;17.27;80.64;99983.31;4976078;28;46594;-59
2022/10/21 05:22:22;;;;;;;;;7.75;5.00;;;;;17.29;80.59;99994.13;4974664;28;45366;-59
2022/10/21 05:24:48;;;;;;;;;4.00;4.00;;;;;17.33;80.62;99992.44;4975186;28;45417;-60
2022/10/21 05:27:13;;;;;;;;;6.50;5.00;;;;;17.08;80.61;99955.28;4976355;28;45346;-59
2022/10/21 05:29:39;;;;;;;;;7.00;5.50;;;;;17.35;80.44;99990.25;4975219;28;45954;-59
2022/10/21 05:32:04;;;;;;;;;4.25;4.25;;;;;17.34;80.55;99994.09;4975908;28;45446;-58
2022/10/21 05:34:30;;;;;;;;;7.00;5.00;;;;;17.34;80.66;99994.94;4976552;28;45418;-60
2022/10/21 05:36:55;;;;;;;;;3.00;3.00;;;;;17.28;80.69;99976.63;4976625;28;45628;-59
2022/10/21 05:39:21;;;;;;;;;4.75;4.75;;;;;17.34;80.55;99977.47;4976131;28;46168;-59
2022/10/21 05:41:46;;;;;;;;;4.25;4.25;;;;;17.35;80.56;99973.63;4974988;28;45418;-60
2022/10/21 05:44:12;;;;;;;;;7.50;6.00;;;;;17.37;80.27;99971.38;4976557;28;45344;-59
2022/10/21 05:46:37;;;;;;;;;7.00;4.75;;;;;17.34;80.02;99969.16;4975494;28;45457;-59
2022/10/21 05:49:03;;;;;;;;;4.00;4.00;;;;;17.43;80.17;99986.06;4974506;28;46731;-59
2022/10/21 05:51:29;;;;;;;;;7.00;5.75;;;;;17.45;79.95;99993.00;4974953;28;45391;-58
2022/10/21 05:53:54;;;;;;;;;5.00;4.00;;;;;17.22;79.94;99958.34;4976287;28;45299;-60
2022/10/21 05:56:20;;;;;;;;;7.75;6.00;;;;;17.38;79.97;99986.91;4976188;28;45153;-60
2022/10/21 05:58:46;;;;;;;;;5.50;3.75;;;;;17.46;79.50;99997.44;4974875;28;46099;-59
2022/10/21 06:01:11;;;;;;;;;5.25;4.50;;;;;17.46;79.72;100011.31;4975925;28;45397;-59
2022/10/21 06:03:37;;;;;;;;;9.25;5.00;;;;;17.45;80.01;100026.31;4976114;28;45392;-59
2022/10/21 06:06:04;;;;;;;;;2.00;2.00;;;;;17.44;80.08;100029.34;4976036;28;45555;-58
2022/10/21 06:08:30;;;;;;;;;6.20;6.20;;;;;17.48;80.04;100039.63;4975950;28;46052;-59
2022/10/21 06:11:06;;;;;;;;;7.40;6.60;;;;;17.42;80.16;100053.75;4976039;28;45442;-59
2022/10/21 06:13:32;;;;;;;;;6.80;6.80;;;;;17.46;79.95;100060.44;4976067;28;45239;-58
2022/10/21 06:15:57;;;;;;;;;4.25;4.25;;;;;17.46;79.75;100072.34;4975923;28;45355;-59
2022/10/21 06:18:23;;;;;;;;;7.75;4.00;;;;;17.48;79.66;100075.69;4968819;28;45460;-59
2022/10/21 06:20:48;;;;;;;;;5.25;5.25;;;;;17.50;79.91;100066.25;4956466;28;45271;-59
2022/10/21 06:23:15;;;;;;;;;5.25;4.50;;;;;17.50;79.79;100078.19;4950620;28;45380;-60
2022/10/21 06:25:41;;;;;;;;;4.60;4.40;;;;;17.50;79.48;100085.69;4950074;28;45842;-60
2022/10/21 06:28:07;;;;;;;;;6.20;6.20;;;;;17.49;79.58;100070.97;4956082;28;46634;-59
2022/10/21 06:30:33;;;;;;;;;7.75;5.25;;;;;17.51;79.71;100071.53;4956163;28;45378;-58
2022/10/21 06:32:59;;;;;;;;;6.00;5.00;;;;;17.51;79.71;100092.88;4954706;28;45440;-58
2022/10/21 06:35:24;;;;;;;;;5.50;4.75;;;;;17.44;79.98;100107.84;4954948;28;45445;-60
2022/10/21 06:37:50;;;;;;;;;6.50;6.50;;;;;17.45;80.08;100115.06;4956120;28;45401;-59
2022/10/21 06:40:16;;;;;;;;;7.00;7.00;;;;;17.45;80.57;100108.69;4955918;28;45358;-59
2022/10/21 06:42:41;;;;;;;;;5.50;5.50;;;;;17.46;80.22;100108.41;4955919;28;45359;-59
2022/10/21 06:45:07;;;;;;;;;3.50;3.50;;;;;17.48;80.03;100113.69;4987609;28;45377;-59
2022/10/21 06:47:32;;;;;;;;;5.75;5.00;;;;;17.44;80.13;100107.00;4955814;28;46223;-59
2022/10/21 06:50:01;;;;;;;;;3.50;3.50;;;;;17.50;80.22;100107.88;4954602;28;45378;-58
2022/10/21 06:52:29;;;;;;;;;5.40;5.40;;;;;17.47;80.30;100106.47;4954568;28;45312;-59
2022/10/21 06:54:54;;;;;;;;;5.40;5.00;;;;;17.44;80.30;100109.78;4956365;28;45374;-59
2022/10/21 06:57:20;;;;;;;;;5.50;5.25;;;;;17.37;80.61;100101.75;4955312;28;45970;-60
2022/10/21 06:59:46;;;;;;;;;8.25;7.00;;;;;17.42;80.96;100098.97;4954457;28;45552;-60
2022/10/21 07:02:11;;;;;;;;;8.80;8.00;;;;;17.42;81.06;100103.69;4954328;28;45307;-59
2022/10/21 07:04:37;;;;;;;;;5.25;5.25;;;;;17.47;81.23;100123.13;4955707;28;45432;-63
2022/10/21 07:07:02;;;;;;;;;5.50;5.00;;;;;17.44;80.78;100099.53;4954995;28;45997;-62
2022/10/21 07:09:29;;;;;;;;;11.75;8.75;;;;;17.49;80.68;100104.25;4955494;28;45231;-62
2022/10/21 07:11:54;;;;;;;;;9.60;8.20;;;;;17.49;80.66;100104.25;4955682;28;45676;-61
2022/10/21 07:14:20;;;;;;;;;11.00;10.00;;;;;17.24;80.99;100071.75;4956251;28;45337;-61
2022/10/21 07:16:47;;;;;;;;;7.25;7.25;;;;;17.38;80.91;100116.41;4958724;28;45638;-62
2022/10/21 07:19:12;;;;;;;;;6.00;6.00;;;;;17.37;80.68;100123.94;4970646;28;45410;-62
2022/10/21 07:21:38;;;;;;;;;6.25;6.25;;;;;17.43;81.02;100155.28;4978274;28;45390;-61
2022/10/21 07:24:03;;;;;;;;;5.75;4.50;;;;;17.40;80.83;100161.38;4976890;28;45480;-61
2022/10/21 07:26:30;;;;;;;;;8.00;5.25;;;;;17.37;81.04;100167.47;4977895;28;45473;-60
2022/10/21 07:28:57;;;;;;;;;5.00;5.00;;;;;17.35;81.26;100156.66;4978125;28;45362;-61
2022/10/21 07:31:22;;;;;;;;;7.40;6.00;;;;;17.34;81.18;100132.78;4944526;28;45613;-60
2022/10/21 07:33:48;;;;;;;;;8.50;6.25;;;;;17.16;81.19;100111.91;4976591;28;45414;-61
2022/10/21 07:36:17;;;;;;;;;6.20;5.60;;;;;17.30;80.83;100145.53;4932333;28;45769;-62
2022/10/21 07:38:45;;;;;;;;;6.20;5.40;;;;;17.32;81.27;100168.28;4988883;28;45430;-62
2022/10/21 07:41:18;;;;;;;;;4.00;4.00;;;;;17.30;80.98;100173.28;4958934;28;45337;-61
2022/10/21 07:43:44;;;;;;;;;12.60;12.00;;;;;17.30;80.52;100165.78;4989574;28;45404;-61
2022/10/21 07:46:09;;;;;;;;;13.75;12.75;;;;;17.33;80.72;100169.94;4970154;28;46258;-62
2022/10/21 07:48:35;;;;;;;;;4.50;4.50;;;;;17.36;80.19;100166.66;4977926;28;45563;-61
2022/10/21 07:51:06;;;;;;;;;6.00;6.00;;;;;17.23;79.86;100143.00;4977361;28;45312;-61
2022/10/21 07:53:31;;;;;;;;;4.00;4.00;;;;;17.39;79.56;100162.50;4978253;28;45335;-62
2022/10/21 07:56:30;;;;;;;;;7.25;5.50;;;;;17.29;79.68;100157.75;4977498;28;45927;-63
2022/10/21 07:58:56;;;;;;;;;2.00;2.00;;;;;17.41;79.74;100177.75;4968821;28;45359;-63
2022/10/21 08:01:21;;;;;;;;;3.50;3.00;;;;;17.45;79.83;100169.72;4960254;28;45425;-61
2022/10/21 08:03:47;;;;;;;;;3.00;3.00;;;;;17.27;80.07;100140.53;4976631;28;45584;-63
2022/10/21 08:06:14;;;;;;;;;4.75;4.25;;;;;17.38;80.42;100166.34;4977745;28;45884;-64
2022/10/21 08:08:40;;;;;;;;;3.00;3.00;;;;;17.20;80.14;100130.50;4977423;28;45389;-60
2022/10/21 08:11:06;;;;;;;;;5.50;4.50;;;;;17.47;80.24;100182.19;4977721;28;45425;-63
2022/10/21 08:13:32;;;;;;;;;3.00;3.00;;;;;17.43;80.05;100180.25;4970396;28;45676;-61
2022/10/21 08:15:58;;;;;;;;;3.75;2.75;;;;;17.28;80.17;100151.34;4975942;28;46670;-56
2022/10/21 08:18:24;;;;;;;;;2.50;1.00;;;;;17.34;79.92;100152.19;4976553;28;45370;-61
2022/10/21 08:20:50;;;;;;;;;3.80;3.60;;;;;17.19;80.15;100122.50;4976050;28;45447;-62
2022/10/21 08:23:17;;;;;;;;;4.25;3.75;;;;;17.18;79.78;100104.19;4975527;28;45382;-62
2022/10/21 08:26:00;;;;;;;;;4.00;3.00;;;;;17.66;79.70;100180.88;4976066;28;46167;-60
2022/10/21 08:28:27;;;;;;;;;5.00;4.00;;;;;17.64;80.23;100180.31;4975799;28;45407;-60
2022/10/21 08:30:53;;;;;;;;;4.00;3.40;;;;;17.04;80.14;100092.75;4970451;28;45296;-62
2022/10/21 08:33:18;;;;;;;;;3.75;3.00;;;;;17.63;80.30;100168.38;4956961;28;45326;-68
2022/10/21 08:35:44;;;;;;;;;2.75;2.75;;;;;17.52;79.99;100153.66;4922960;28;46232;-72
2022/10/21 08:38:10;;;;;;;;;5.00;3.80;;;;;17.70;80.23;100184.75;4939003;28;45500;-70
2022/10/21 08:40:38;;;;;;;;;5.00;3.00;;;;;17.64;80.30;100172.81;4939638;28;45364;-68
2022/10/21 08:43:08;;;;;;;;;5.80;3.20;;;;;17.72;80.09;100191.72;4938730;28;45497;-62
2022/10/21 08:45:42;;;;;;;;;3.00;3.00;;;;;17.51;79.86;100156.69;4964912;28;46258;-64
2022/10/21 08:48:09;;;;;;;;;3.60;3.60;;;;;17.77;80.37;100187.28;4974752;28;45547;-63
2022/10/21 08:50:38;;;;;;;;;2.20;2.20;;;;;17.76;79.99;100183.66;4974609;28;45447;-63
2022/10/21 08:53:06;;;;;;;;;4.00;4.00;;;;;17.16;79.84;100085.03;4959353;28;45393;-63
2022/10/21 08:55:39;;;;;;;;;7.20;3.20;;;;;17.81;79.70;100200.34;4958192;28;45865;-63
2022/10/21 08:58:04;;;;;;;;;2.80;2.80;;;;;17.89;79.67;100196.19;4974621;28;45382;-62
2022/10/21 09:00:36;;;;;;;;;5.00;3.25;;;;;17.77;79.36;100163.13;4943197;28;45825;-63
2022/10/21 09:03:02;;;;;;;;;6.20;5.40;;;;;17.95;79.18;100167.34;4959600;28;45334;-63
2022/10/21 09:05:45;;;;;;;;;7.50;5.25;;;;;18.21;78.87;100197.09;4976805;28;45846;-63
2022/10/21 09:08:34;;;;;;;;;6.00;4.80;;;;;18.30;79.24;100195.41;4959753;28;45401;-62
2022/10/21 09:11:19;;;;;;;;;7.20;5.00;;;;;18.41;78.60;100191.53;4976491;28;45509;-63
2022/10/21 09:14:22;;;;;;;;;7.60;4.80;;;;;18.47;78.64;100194.31;4975038;28;45501;-64
2022/10/21 09:17:03;;;;;;;;;3.80;3.80;;;;;18.50;78.24;100193.75;4951263;28;46756;-64
2022/10/21 09:19:35;;;;;;;;;6.40;4.80;;;;;18.56;78.14;100192.63;4961480;28;45422;-63
2022/10/21 09:22:10;;;;;;;;;4.00;2.80;;;;;18.63;77.67;100195.16;4959037;28;45465;-64
2022/10/21 09:24:44;;;;;;;;;3.40;3.40;;;;;18.76;77.34;100190.94;4975102;28;45438;-63
2022/10/21 09:27:10;;;;;;;;;5.00;5.00;;;;;18.89;77.02;100192.31;4973081;28;45701;-65
2022/10/21 09:29:36;;;;;;;;;5.25;5.00;;;;;18.93;76.51;100199.81;4973369;28;45537;-62
2022/10/21 09:32:14;;;;;;;;;5.60;4.00;;;;;18.73;76.09;100161.75;4952670;28;45369;-63
2022/10/21 09:34:51;;;;;;;;;5.60;4.60;;;;;18.97;76.30;100188.97;4953805;28;45659;-62
2022/10/21 09:37:38;;;;;;;;;5.80;4.80;;;;;18.59;75.68;100130.97;4921026;28;48086;-64
2022/10/21 09:40:27;;;;;;;;;11.00;6.60;;;;;19.03;75.92;100187.03;4972289;28;45434;-63
2022/10/21 09:42:57;;;;;;;;;4.00;4.00;;;;;19.09;75.70;100186.75;4971697;28;45751;-62
2022/10/21 09:45:39;;;;;;;;;5.40;5.40;;;;;19.08;75.69;100187.00;4973614;28;45526;-63
2022/10/21 09:48:05;;;;;;;;;6.40;5.00;;;;;18.97;75.32;100163.94;4973352;28;46692;-63
2022/10/21 09:50:31;;;;;;;;;8.80;5.40;;;;;19.07;75.41;100194.53;4972730;28;45388;-64
2022/10/21 09:53:05;;;;;;;;;8.25;5.00;;;;;18.94;75.87;100176.44;4972979;28;45341;-64
2022/10/21 09:55:31;;;;;;;;;6.80;6.00;;;;;19.08;75.75;100189.78;4969402;28;45292;-61
2022/10/21 09:57:58;;;;;;;;;7.20;5.00;;;;;19.23;75.56;100200.03;4964254;28;45434;-63
2022/10/21 10:00:47;;;;;;;;;4.00;4.00;;;;;19.23;74.96;100184.16;4956956;28;45437;-61
2022/10/21 10:03:27;;;;;;;;;5.20;3.80;;;;;19.40;75.02;100201.63;4973010;28;45506;-62
2022/10/21 10:05:53;;;;;;;;;6.60;6.60;;;;;19.68;74.00;100204.88;4973583;28;45475;-62
2022/10/21 10:08:27;;;;;;;;;7.25;7.25;;;;;19.74;73.85;100181.44;4963522;28;45494;-62
2022/10/21 10:11:12;;;;;;;;;7.20;6.40;;;;;20.06;72.78;100204.38;4955044;28;45394;-64
2022/10/21 10:13:46;;;;;;;;;6.00;6.00;;;;;20.03;72.41;100200.22;4968065;28;45488;-63
2022/10/21 10:16:14;;;;;;;;;8.00;7.80;;;;;19.92;72.65;100177.16;4956888;28;45712;-62
2022/10/21 10:18:41;;;;;;;;;6.60;5.40;;;;;20.13;72.20;100191.78;4990679;28;49425;-63
2022/10/21 10:21:13;;;;;;;;;6.00;5.60;;;;;20.15;71.50;100169.19;4975343;28;45551;-61
2022/10/21 10:23:46;;;;;;;;;6.60;4.60;;;;;20.41;71.08;100194.06;4992348;28;45397;-62
2022/10/21 10:26:33;;;;;;;;;7.80;5.60;;;;;20.45;70.36;100190.41;4994101;28;45337;-62
2022/10/21 10:29:14;;;;;;;;;7.00;6.60;;;;;20.66;70.07;100204.16;4993432;28;48017;-62
2022/10/21 10:31:44;;;;;;;;;4.80;4.60;;;;;20.48;69.74;100138.81;4990190;28;45771;-62
2022/10/21 10:34:17;;;;;;;;;4.80;4.80;;;;;21.10;68.65;100204.31;4991671;28;45447;-63
2022/10/21 10:36:42;;;;;;;;;4.20;4.00;;;;;21.21;66.31;100188.28;4992548;28;45399;-63
2022/10/21 10:39:19;;;;;;;;;4.50;4.50;;;;;21.29;67.53;100195.16;4968078;28;46194;-62
2022/10/21 10:41:46;;;;;;;;;4.20;4.20;;;;;21.37;66.86;100181.38;4992193;28;45583;-63
2022/10/21 10:44:30;;;;;;;;;6.40;3.80;;;;;21.40;66.84;100189.16;4988944;28;45460;-61
2022/10/21 10:46:57;;;;;;;;;7.80;5.60;;;;;21.57;66.98;100190.63;4978396;28;45891;-61
2022/10/21 10:49:23;;;;;;;;;5.40;5.40;;;;;21.43;65.80;100140.28;4960956;28;46927;-62
2022/10/21 10:52:10;;;;;;;;;6.50;3.00;;;;;21.80;65.28;100182.50;4995703;28;45523;-61
2022/10/21 10:54:39;;;;;;;;;4.20;4.00;;;;;21.88;64.71;100175.41;4998377;28;45386;-64
2022/10/21 10:57:25;;;;;;;;;4.60;3.00;;;;;22.25;63.97;100187.66;4997351;28;45550;-62
2022/10/21 11:00:05;;;;;;;;;4.00;2.80;;;;;22.70;61.56;100158.41;4998070;28;45661;-63
2022/10/21 11:02:34;;;;;;;;;2.80;2.20;;;;;24.16;58.33;100196.25;4996931;28;45377;-63
2022/10/21 11:05:14;;;;;;;;;3.40;3.20;;;;;25.34;53.44;100151.31;4997918;28;45479;-65
2022/10/21 11:07:50;;;;;;;;;2.80;2.80;;;;;27.05;47.88;100145.72;4997210;28;45435;-63
2022/10/21 11:10:38;;;;;;;;;3.00;3.00;;;;;28.62;46.15;100157.28;4980306;28;45440;-61
2022/10/21 11:13:08;;;;;;;;;5.00;2.60;;;;;30.00;42.90;100170.19;4996823;28;45468;-62
2022/10/21 11:15:43;;;;;;;;;5.20;4.20;;;;;31.31;39.53;100170.91;5013363;28;45380;-62
2022/10/21 11:18:26;;;;;;;;;5.00;5.00;;;;;32.35;38.07;100154.50;4997199;28;45366;-62
2022/10/21 11:20:57;;;;;;;;;4.40;3.80;;;;;33.21;36.22;100157.25;4990083;28;45325;-62
2022/10/21 11:23:35;;;;;;;;;3.60;3.00;;;;;33.97;34.19;100168.88;4976691;28;45362;-61
2022/10/21 11:26:28;;;;;;;;;3.00;3.00;;;;;33.95;35.09;100171.31;4973891;28;45641;-60
2022/10/21 11:29:23;;;;;;;;;4.80;4.80;;;;;34.02;34.12;100167.72;4997218;28;45807;-59
2022/10/21 11:32:07;;;;;;;;;2.00;2.00;;;;;33.98;32.84;100173.38;4993768;28;45436;-61
2022/10/21 11:34:45;;;;;;;;;3.60;2.40;;;;;34.20;32.97;100151.72;5012482;28;46236;-59
2022/10/21 11:37:49;;;;;;;;;2.80;2.80;;;;;34.36;32.77;100184.03;4978517;28;45568;-61
2022/10/21 11:40:29;;;;;;;;;2.40;2.40;;;;;33.94;32.59;100176.16;4965153;28;45590;-61